Time;durP1;ratioP1;P1;durP2;ratioP2;P2;SDS_P1;SDS_P2;PMS_P1;PMS_P2;Temp;Humidity;BMP_temperature;BMP_pressure;BME280_temperature;BME280_humidity;BME280_pressure;Samples;Min_cycle;Max_cycle;Signal;HPM_P1;HPM_P2
2023/06/06 00:01:51;;;;;;;;;;;;;;;;;;5067469;28;20007;-66
2023/06/06 00:04:17;;;;;;;;;;;;;;;;;;5073907;28;19917;-66
2023/06/06 00:06:44;;;;;;;;;;;;;;;;;;5075714;28;19919;-65
2023/06/06 00:09:10;;;;;;;;;;;;;;;;;;5055172;28;19982;-66
2023/06/06 00:11:36;;;;;;;;;;;;;;;;;;5062459;28;20399;-66
2023/06/06 00:14:01;;;;;;;;;;;;;;;;;;5056294;28;20007;-66
2023/06/06 00:16:27;;;;;;;;;;;;;;;;;;5065478;28;19927;-66
2023/06/06 00:18:55;;;;;;;;;;;;;;;;;;5074465;28;20291;-66
2023/06/06 00:21:21;;;;;;;;;;;;;;;;;;5074376;28;19917;-66
2023/06/06 00:23:47;;;;;;;;;;;;;;;;;;5073176;28;20277;-66
2023/06/06 00:26:13;;;;;;;;;;;;;;;;;;5072525;28;19924;-66
2023/06/06 00:28:39;;;;;;;;;;;;;;;;;;5072842;28;19912;-66
2023/06/06 00:31:05;;;;;;;;;;;;;;;;;;5074174;28;19912;-66
2023/06/06 00:33:30;;;;;;;;;;;;;;;;;;5074007;28;19912;-66
2023/06/06 00:35:56;;;;;;;;;;;;;;;;;;5070619;28;20003;-66
2023/06/06 00:38:22;;;;;;;;;;;;;;;;;;5047910;28;20398;-66
2023/06/06 00:40:48;;;;;;;;;;;;;;;;;;5059084;28;19917;-66
2023/06/06 00:43:14;;;;;;;;;;;;;;;;;;5066628;28;19930;-66
2023/06/06 00:45:40;;;;;;;;;;;;;;;;;;5060194;28;20360;-66
2023/06/06 00:48:06;;;;;;;;;;;;;;;;;;5060941;28;19948;-66
2023/06/06 00:50:34;;;;;;;;;;;;;;;;;;5066420;28;20390;-66
2023/06/06 00:53:00;;;;;;;;;;;;;;;;;;5073763;28;20007;-66
2023/06/06 00:55:26;;;;;;;;;;;;;;;;;;5071509;28;19999;-65
2023/06/06 00:57:52;;;;;;;;;;;;;;;;;;5073829;28;20351;-65
2023/06/06 01:00:18;;;;;;;;;;;;;;;;;;5068819;28;19916;-63
2023/06/06 01:02:47;;;;;;;;;;;;;;;;;;5072566;28;19912;-60
2023/06/06 01:05:13;;;;;;;;;;;;;;;;;;5073694;28;19917;-59
2023/06/06 01:07:42;;;;;;;;;;;;;;;;;;5074327;28;19919;-60
2023/06/06 01:10:08;;;;;;;;;;;;;;;;;;5059887;28;19924;-60
2023/06/06 01:12:34;;;;;;;;;;;;;;;;;;5063394;28;19944;-60
2023/06/06 01:15:00;;;;;;;;;;;;;;;;;;5060470;28;19979;-60
2023/06/06 01:17:27;;;;;;;;;;;;;;;;;;5049290;28;19968;-59
2023/06/06 01:19:53;;;;;;;;;;;;;;;;;;5072133;28;20364;-60
2023/06/06 01:22:22;;;;;;;;;;;;;;;;;;5074103;28;19927;-60
2023/06/06 01:24:48;;;;;;;;;;;;;;;;;;5058213;28;19996;-60
2023/06/06 01:27:14;;;;;;;;;;;;;;;;;;5054131;28;19963;-60
2023/06/06 01:29:40;;;;;;;;;;;;;;;;;;5062792;28;19956;-60
2023/06/06 01:32:06;;;;;;;;;;;;;;;;;;5063466;28;20007;-60
2023/06/06 01:34:32;;;;;;;;;;;;;;;;;;5063834;28;20027;-60
2023/06/06 01:36:58;;;;;;;;;;;;;;;;;;5056251;28;20361;-60
2023/06/06 01:39:24;;;;;;;;;;;;;;;;;;5059586;28;20019;-60
2023/06/06 01:41:51;;;;;;;;;;;;;;;;;;5072625;28;19916;-60
2023/06/06 01:44:17;;;;;;;;;;;;;;;;;;5073099;28;19912;-60
2023/06/06 01:46:43;;;;;;;;;;;;;;;;;;5066667;28;19935;-60
2023/06/06 01:49:09;;;;;;;;;;;;;;;;;;5068885;28;19922;-59
2023/06/06 01:51:36;;;;;;;;;;;;;;;;;;5052657;28;19917;-59
2023/06/06 01:54:02;;;;;;;;;;;;;;;;;;5065472;28;19912;-60
2023/06/06 01:56:33;;;;;;;;;;;;;;;;;;5066727;28;19971;-60
2023/06/06 01:58:59;;;;;;;;;;;;;;;;;;5056201;28;20019;-60
2023/06/06 02:01:25;;;;;;;;;;;;;;;;;;5063475;28;19987;-60
2023/06/06 02:03:51;;;;;;;;;;;;;;;;;;5072514;28;20016;-60
2023/06/06 02:06:17;;;;;;;;;;;;;;;;;;5059941;28;20412;-60
2023/06/06 02:08:43;;;;;;;;;;;;;;;;;;5067926;28;20003;-59
2023/06/06 02:11:09;;;;;;;;;;;;;;;;;;5069898;28;19960;-59
2023/06/06 02:13:35;;;;;;;;;;;;;;;;;;5072459;28;19977;-60
2023/06/06 02:16:01;;;;;;;;;;;;;;;;;;5069896;28;20406;-60
2023/06/06 02:18:27;;;;;;;;;;;;;;;;;;5070859;28;19919;-60
2023/06/06 02:20:53;;;;;;;;;;;;;;;;;;5064644;28;19982;-60
2023/06/06 02:23:19;;;;;;;;;;;;;;;;;;5069764;28;20009;-59
2023/06/06 02:25:45;;;;;;;;;;;;;;;;;;5056814;28;19920;-60
2023/06/06 02:28:14;;;;;;;;;;;;;;;;;;5070746;28;19947;-60
2023/06/06 02:30:40;;;;;;;;;;;;;;;;;;5055020;28;19923;-59
2023/06/06 02:33:07;;;;;;;;;;;;;;;;;;5053069;28;19961;-60
2023/06/06 02:35:33;;;;;;;;;;;;;;;;;;5055640;28;20000;-60
2023/06/06 02:37:59;;;;;;;;;;;;;;;;;;5071038;28;20016;-60
2023/06/06 02:40:25;;;;;;;;;;;;;;;;;;5071094;28;19978;-59
2023/06/06 02:42:51;;;;;;;;;;;;;;;;;;5067008;28;19920;-60
2023/06/06 02:45:17;;;;;;;;;;;;;;;;;;5064264;28;20342;-60
2023/06/06 02:47:43;;;;;;;;;;;;;;;;;;5064461;28;19912;-59
2023/06/06 02:50:10;;;;;;;;;;;;;;;;;;5051584;28;19908;-60
2023/06/06 02:52:38;;;;;;;;;;;;;;;;;;5051795;28;19909;-60
2023/06/06 02:55:04;;;;;;;;;;;;;;;;;;5064008;28;19916;-60
2023/06/06 02:57:30;;;;;;;;;;;;;;;;;;5071792;28;20264;-60
2023/06/06 02:59:58;;;;;;;;;;;;;;;;;;5069144;28;19927;-59
2023/06/06 03:02:24;;;;;;;;;;;;;;;;;;5071348;28;19913;-59
2023/06/06 03:04:50;;;;;;;;;;;;;;;;;;5065792;28;19912;-60
2023/06/06 03:07:16;;;;;;;;;;;;;;;;;;5071436;28;19938;-60
2023/06/06 03:09:42;;;;;;;;;;;;;;;;;;5067569;28;20400;-59
2023/06/06 03:12:08;;;;;;;;;;;;;;;;;;5064560;28;19994;-59
2023/06/06 03:14:34;;;;;;;;;;;;;;;;;;5069919;28;19916;-60
2023/06/06 03:17:00;;;;;;;;;;;;;;;;;;5063194;28;20004;-60
2023/06/06 03:19:26;;;;;;;;;;;;;;;;;;5069594;28;19939;-60
2023/06/06 03:21:52;;;;;;;;;;;;;;;;;;5056012;28;19962;-60
2023/06/06 03:24:19;;;;;;;;;;;;;;;;;;5064054;28;19912;-60
2023/06/06 03:26:46;;;;;;;;;;;;;;;;;;5069636;28;19955;-60
2023/06/06 03:29:12;;;;;;;;;;;;;;;;;;5069688;28;19960;-60
2023/06/06 03:31:38;;;;;;;;;;;;;;;;;;5070923;28;20015;-60
2023/06/06 03:34:04;;;;;;;;;;;;;;;;;;5067122;28;19912;-59
2023/06/06 03:36:34;;;;;;;;;;;;;;;;;;5070539;28;19916;-60
2023/06/06 03:39:00;;;;;;;;;;;;;;;;;;5068830;28;19943;-59
2023/06/06 03:41:26;;;;;;;;;;;;;;;;;;5062302;28;19948;-60
2023/06/06 03:43:52;;;;;;;;;;;;;;;;;;5056630;28;19995;-60
2023/06/06 03:46:17;;;;;;;;;;;;;;;;;;5068554;28;19952;-60
2023/06/06 03:48:43;;;;;;;;;;;;;;;;;;5065887;28;20398;-60
2023/06/06 03:51:09;;;;;;;;;;;;;;;;;;5069195;28;20137;-60
2023/06/06 03:53:35;;;;;;;;;;;;;;;;;;5059801;28;19912;-60
2023/06/06 03:56:02;;;;;;;;;;;;;;;;;;5061987;28;19958;-60
2023/06/06 03:58:29;;;;;;;;;;;;;;;;;;5052109;28;20339;-60
2023/06/06 04:00:58;;;;;;;;;;;;;;;;;;5065126;28;19979;-60
2023/06/06 04:03:23;;;;;;;;;;;;;;;;;;5053133;28;19958;-59
2023/06/06 04:05:50;;;;;;;;;;;;;;;;;;5065063;28;19956;-60
2023/06/06 04:08:16;;;;;;;;;;;;;;;;;;5067673;28;20005;-60
2023/06/06 04:10:42;;;;;;;;;;;;;;;;;;5061251;28;19959;-60
2023/06/06 04:13:08;;;;;;;;;;;;;;;;;;5057440;28;19913;-60
2023/06/06 04:15:34;;;;;;;;;;;;;;;;;;5064870;28;20291;-60
2023/06/06 04:18:00;;;;;;;;;;;;;;;;;;5054958;28;20330;-60
2023/06/06 04:20:27;;;;;;;;;;;;;;;;;;5063273;28;19967;-60
2023/06/06 04:22:53;;;;;;;;;;;;;;;;;;5070497;28;19991;-60
2023/06/06 04:25:19;;;;;;;;;;;;;;;;;;5062176;28;20447;-60
2023/06/06 04:27:45;;;;;;;;;;;;;;;;;;5073071;28;19912;-60
2023/06/06 04:30:12;;;;;;;;;;;;;;;;;;5073796;28;20407;-60
2023/06/06 04:32:39;;;;;;;;;;;;;;;;;;5066060;28;19912;-59
2023/06/06 04:35:05;;;;;;;;;;;;;;;;;;5062262;28;19912;-60
2023/06/06 04:37:32;;;;;;;;;;;;;;;;;;5065842;28;20350;-60
2023/06/06 04:40:00;;;;;;;;;;;;;;;;;;5072480;28;19916;-60
2023/06/06 04:42:26;;;;;;;;;;;;;;;;;;5073839;28;19912;-60
2023/06/06 04:44:52;;;;;;;;;;;;;;;;;;5074166;28;19909;-60
2023/06/06 04:47:22;;;;;;;;;;;;;;;;;;5064395;28;19908;-60
2023/06/06 04:49:48;;;;;;;;;;;;;;;;;;5063535;28;20011;-60
2023/06/06 04:52:14;;;;;;;;;;;;;;;;;;5056283;28;20009;-60
2023/06/06 04:54:40;;;;;;;;;;;;;;;;;;5062515;28;19917;-60
2023/06/06 04:57:07;;;;;;;;;;;;;;;;;;5063898;28;19920;-60
2023/06/06 04:59:33;;;;;;;;;;;;;;;;;;5065375;28;20003;-60
2023/06/06 05:01:59;;;;;;;;;;;;;;;;;;5053670;28;19939;-60
2023/06/06 05:04:25;;;;;;;;;;;;;;;;;;5070781;28;19915;-60
2023/06/06 05:06:52;;;;;;;;;;;;;;;;;;5062468;28;19921;-60
2023/06/06 05:09:17;;;;;;;;;;;;;;;;;;5056469;28;19919;-60
2023/06/06 05:11:43;;;;;;;;;;;;;;;;;;5057566;28;20296;-60
2023/06/06 05:14:09;;;;;;;;;;;;;;;;;;5070741;28;19983;-60
2023/06/06 05:16:35;;;;;;;;;;;;;;;;;;5056212;28;20029;-60
2023/06/06 05:19:02;;;;;;;;;;;;;;;;;;5068479;28;19917;-60
2023/06/06 05:21:28;;;;;;;;;;;;;;;;;;5070308;28;19923;-60
2023/06/06 05:23:54;;;;;;;;;;;;;;;;;;5073294;28;19912;-60
2023/06/06 05:26:20;;;;;;;;;;;;;;;;;;5068209;28;19970;-60
2023/06/06 05:28:46;;;;;;;;;;;;;;;;;;5062423;28;20380;-60
2023/06/06 05:31:16;;;;;;;;;;;;;;;;;;5066636;28;19986;-60
2023/06/06 05:33:42;;;;;;;;;;;;;;;;;;5061584;28;20277;-60
2023/06/06 05:36:08;;;;;;;;;;;;;;;;;;5063508;28;19920;-60
2023/06/06 05:38:34;;;;;;;;;;;;;;;;;;5065377;28;19952;-60
2023/06/06 05:41:00;;;;;;;;;;;;;;;;;;5056279;28;21205;-60
2023/06/06 05:43:27;;;;;;;;;;;;;;;;;;5060647;28;20055;-60
2023/06/06 05:45:53;;;;;;;;;;;;;;;;;;5063864;28;20382;-60
2023/06/06 05:48:19;;;;;;;;;;;;;;;;;;5068894;28;20015;-61
2023/06/06 05:50:45;;;;;;;;;;;;;;;;;;5059445;28;19930;-60
2023/06/06 05:53:11;;;;;;;;;;;;;;;;;;5052804;28;19909;-60
2023/06/06 05:55:37;;;;;;;;;;;;;;;;;;5052943;28;19918;-60
2023/06/06 05:58:03;;;;;;;;;;;;;;;;;;5054517;28;19944;-60
2023/06/06 06:00:29;;;;;;;;;;;;;;;;;;5059929;28;19978;-60
2023/06/06 06:02:56;;;;;;;;;;;;;;;;;;5057961;28;19955;-60
2023/06/06 06:05:22;;;;;;;;;;;;;;;;;;5060780;28;19921;-60
2023/06/06 06:07:49;;;;;;;;;;;;;;;;;;5069893;28;20371;-60
2023/06/06 06:10:15;;;;;;;;;;;;;;;;;;5052010;28;19917;-60
2023/06/06 06:12:41;;;;;;;;;;;;;;;;;;5066564;28;19968;-60
2023/06/06 06:15:08;;;;;;;;;;;;;;;;;;5060736;28;19968;-60
2023/06/06 06:17:33;;;;;;;;;;;;;;;;;;5062070;28;19908;-60
2023/06/06 06:20:07;;;;;;;;;;;;;;;;;;5056965;28;19975;-60
2023/06/06 06:22:33;;;;;;;;;;;;;;;;;;5061705;28;19999;-60
2023/06/06 06:24:59;;;;;;;;;;;;;;;;;;5069572;28;19996;-61
2023/06/06 06:27:25;;;;;;;;;;;;;;;;;;5071788;28;19912;-60
2023/06/06 06:29:51;;;;;;;;;;;;;;;;;;5043300;28;20388;-60
2023/06/06 06:32:17;;;;;;;;;;;;;;;;;;5055692;28;19966;-60
2023/06/06 06:34:43;;;;;;;;;;;;;;;;;;5056516;28;19913;-60
2023/06/06 06:37:09;;;;;;;;;;;;;;;;;;5066917;28;19944;-60
2023/06/06 06:39:35;;;;;;;;;;;;;;;;;;5056073;28;20276;-60
2023/06/06 06:42:01;;;;;;;;;;;;;;;;;;5068710;28;20296;-60
2023/06/06 06:44:27;;;;;;;;;;;;;;;;;;5064871;28;19980;-60
2023/06/06 06:46:52;;;;;;;;;;;;;;;;;;5064980;28;19913;-60
2023/06/06 06:49:19;;;;;;;;;;;;;;;;;;5040606;28;19919;-61
2023/06/06 06:51:47;;;;;;;;;;;;;;;;;;5065178;28;20471;-60
2023/06/06 06:54:13;;;;;;;;;;;;;;;;;;5067636;28;19998;-60
2023/06/06 06:56:42;;;;;;;;;;;;;;;;;;5068976;28;19912;-61
2023/06/06 06:59:13;;;;;;;;;;;;;;;;;;5053077;28;19924;-60
2023/06/06 07:01:39;;;;;;;;;;;;;;;;;;5062687;28;20372;-61
2023/06/06 07:04:06;;;;;;;;;;;;;;;;;;5070550;28;19969;-60
2023/06/06 07:06:33;;;;;;;;;;;;;;;;;;5062209;28;19957;-60
2023/06/06 07:09:00;;;;;;;;;;;;;;;;;;5064658;28;20273;-61
2023/06/06 07:11:26;;;;;;;;;;;;;;;;;;5052022;28;19917;-60
2023/06/06 07:13:52;;;;;;;;;;;;;;;;;;5040475;28;20375;-60
2023/06/06 07:16:18;;;;;;;;;;;;;;;;;;5059339;28;19925;-60
2023/06/06 07:18:47;;;;;;;;;;;;;;;;;;5057188;28;21573;-60
2023/06/06 07:21:13;;;;;;;;;;;;;;;;;;5044190;28;19944;-60
2023/06/06 07:23:42;;;;;;;;;;;;;;;;;;5062651;28;19955;-59
2023/06/06 07:26:08;;;;;;;;;;;;;;;;;;5070711;28;20300;-60
2023/06/06 07:28:34;;;;;;;;;;;;;;;;;;5068216;28;19930;-61
2023/06/06 07:31:00;;;;;;;;;;;;;;;;;;5059331;28;19917;-60
2023/06/06 07:33:26;;;;;;;;;;;;;;;;;;5044342;28;19959;-60
2023/06/06 07:35:52;;;;;;;;;;;;;;;;;;5064490;28;19916;-60
2023/06/06 07:38:18;;;;;;;;;;;;;;;;;;5068822;28;19919;-60
2023/06/06 07:40:43;;;;;;;;;;;;;;;;;;5061409;28;19960;-61
2023/06/06 07:43:11;;;;;;;;;;;;;;;;;;5070805;28;19908;-60
2023/06/06 07:45:37;;;;;;;;;;;;;;;;;;5070797;28;19916;-61
2023/06/06 07:48:03;;;;;;;;;;;;;;;;;;5064805;28;19997;-61
2023/06/06 07:50:29;;;;;;;;;;;;;;;;;;5067699;28;19916;-60
2023/06/06 07:52:55;;;;;;;;;;;;;;;;;;5068762;28;20003;-60
2023/06/06 07:55:22;;;;;;;;;;;;;;;;;;5056782;28;20412;-60
2023/06/06 07:57:50;;;;;;;;;;;;;;;;;;5062005;28;20232;-60
2023/06/06 08:00:16;;;;;;;;;;;;;;;;;;5073921;28;19924;-60
2023/06/06 08:02:42;;;;;;;;;;;;;;;;;;5069338;28;19913;-60
2023/06/06 08:05:08;;;;;;;;;;;;;;;;;;5062966;28;19920;-60
2023/06/06 08:07:35;;;;;;;;;;;;;;;;;;5060855;28;20002;-60
2023/06/06 08:10:01;;;;;;;;;;;;;;;;;;5061523;28;19995;-61
2023/06/06 08:12:27;;;;;;;;;;;;;;;;;;5067033;28;19913;-61
2023/06/06 08:14:53;;;;;;;;;;;;;;;;;;5070138;28;19970;-61
2023/06/06 08:17:19;;;;;;;;;;;;;;;;;;5074382;28;19908;-60
2023/06/06 08:19:45;;;;;;;;;;;;;;;;;;5059629;28;20011;-61
2023/06/06 08:22:11;;;;;;;;;;;;;;;;;;5068925;28;19913;-61
2023/06/06 08:24:37;;;;;;;;;;;;;;;;;;5062253;28;19945;-61
2023/06/06 08:27:03;;;;;;;;;;;;;;;;;;5063336;28;19920;-61
2023/06/06 08:29:29;;;;;;;;;;;;;;;;;;5074284;28;20383;-61
2023/06/06 08:31:55;;;;;;;;;;;;;;;;;;5066225;28;19912;-61
2023/06/06 08:34:21;;;;;;;;;;;;;;;;;;5066664;28;19917;-61
2023/06/06 08:36:47;;;;;;;;;;;;;;;;;;5064044;28;19967;-61
2023/06/06 08:39:13;;;;;;;;;;;;;;;;;;5073909;28;20011;-61
2023/06/06 08:41:39;;;;;;;;;;;;;;;;;;5067681;28;19995;-61
2023/06/06 08:44:05;;;;;;;;;;;;;;;;;;5061587;28;19944;-61
2023/06/06 08:46:31;;;;;;;;;;;;;;;;;;5064204;28;19917;-61
2023/06/06 08:48:57;;;;;;;;;;;;;;;;;;5072510;28;19908;-61
2023/06/06 08:51:23;;;;;;;;;;;;;;;;;;5073551;28;19915;-61
2023/06/06 08:53:49;;;;;;;;;;;;;;;;;;5073893;28;19953;-61
2023/06/06 08:56:15;;;;;;;;;;;;;;;;;;5058794;28;19913;-61
2023/06/06 08:58:41;;;;;;;;;;;;;;;;;;5061668;28;19959;-61
2023/06/06 09:01:07;;;;;;;;;;;;;;;;;;5053315;28;19963;-61
2023/06/06 09:03:33;;;;;;;;;;;;;;;;;;5063504;28;19913;-62
2023/06/06 09:05:59;;;;;;;;;;;;;;;;;;5070548;28;19952;-61
2023/06/06 09:08:25;;;;;;;;;;;;;;;;;;5072077;28;20403;-61
2023/06/06 09:10:51;;;;;;;;;;;;;;;;;;5070738;28;20009;-61
2023/06/06 09:13:17;;;;;;;;;;;;;;;;;;5063368;28;19912;-61
2023/06/06 09:15:43;;;;;;;;;;;;;;;;;;5072409;28;19943;-61
2023/06/06 09:18:09;;;;;;;;;;;;;;;;;;5056507;28;19916;-61
2023/06/06 09:20:35;;;;;;;;;;;;;;;;;;5053027;28;19920;-61
2023/06/06 09:23:02;;;;;;;;;;;;;;;;;;5056400;28;20368;-61
2023/06/06 09:25:28;;;;;;;;;;;;;;;;;;5065518;28;19917;-61
2023/06/06 09:27:55;;;;;;;;;;;;;;;;;;5067471;28;19917;-61
2023/06/06 09:30:21;;;;;;;;;;;;;;;;;;5068638;28;19908;-61
2023/06/06 09:32:47;;;;;;;;;;;;;;;;;;5067743;28;19912;-61
2023/06/06 09:35:13;;;;;;;;;;;;;;;;;;5058042;28;19956;-61
2023/06/06 09:37:39;;;;;;;;;;;;;;;;;;5062404;28;20353;-62
2023/06/06 09:40:05;;;;;;;;;;;;;;;;;;5058096;28;19920;-61
2023/06/06 09:42:31;;;;;;;;;;;;;;;;;;5060307;28;19958;-61
2023/06/06 09:44:57;;;;;;;;;;;;;;;;;;5071911;28;19960;-61
2023/06/06 09:47:23;;;;;;;;;;;;;;;;;;5070856;28;20007;-61
2023/06/06 09:49:49;;;;;;;;;;;;;;;;;;5069681;28;19942;-61
2023/06/06 09:52:15;;;;;;;;;;;;;;;;;;5064148;28;20033;-62
2023/06/06 09:54:43;;;;;;;;;;;;;;;;;;5059206;28;19935;-62
2023/06/06 09:57:13;;;;;;;;;;;;;;;;;;5052134;28;20428;-61
2023/06/06 09:59:39;;;;;;;;;;;;;;;;;;5067953;28;19935;-61
2023/06/06 10:02:05;;;;;;;;;;;;;;;;;;5065670;28;19916;-61
2023/06/06 10:04:31;;;;;;;;;;;;;;;;;;5054560;28;20245;-61
2023/06/06 10:06:58;;;;;;;;;;;;;;;;;;5052080;28;19909;-61
2023/06/06 10:09:25;;;;;;;;;;;;;;;;;;5051517;28;19917;-61
2023/06/06 10:11:51;;;;;;;;;;;;;;;;;;5064805;28;19913;-61
2023/06/06 10:14:17;;;;;;;;;;;;;;;;;;5062018;28;19978;-61
2023/06/06 10:16:42;;;;;;;;;;;;;;;;;;5052065;28;19921;-61
2023/06/06 10:19:08;;;;;;;;;;;;;;;;;;5060867;28;19913;-61
2023/06/06 10:21:35;;;;;;;;;;;;;;;;;;5063849;28;20372;-61
2023/06/06 10:24:01;;;;;;;;;;;;;;;;;;5061514;28;20404;-62
2023/06/06 10:26:27;;;;;;;;;;;;;;;;;;5062944;28;20007;-61
2023/06/06 10:28:53;;;;;;;;;;;;;;;;;;5047207;28;19955;-61
2023/06/06 10:31:20;;;;;;;;;;;;;;;;;;5062172;28;19913;-61
2023/06/06 10:33:46;;;;;;;;;;;;;;;;;;5063176;28;20233;-61
2023/06/06 10:36:15;;;;;;;;;;;;;;;;;;5064909;28;19952;-61
2023/06/06 10:38:42;;;;;;;;;;;;;;;;;;5069953;28;19916;-61
2023/06/06 10:41:08;;;;;;;;;;;;;;;;;;5055520;28;20361;-61
2023/06/06 10:43:34;;;;;;;;;;;;;;;;;;5057204;28;19951;-61
2023/06/06 10:46:00;;;;;;;;;;;;;;;;;;5061352;28;19924;-61
2023/06/06 10:48:26;;;;;;;;;;;;;;;;;;5040223;28;19921;-61
2023/06/06 10:50:53;;;;;;;;;;;;;;;;;;5064207;28;19948;-61
2023/06/06 10:53:19;;;;;;;;;;;;;;;;;;5066552;28;19959;-61
2023/06/06 10:55:45;;;;;;;;;;;;;;;;;;5067301;28;19958;-62
2023/06/06 10:58:15;;;;;;;;;;;;;;;;;;5067146;28;19919;-61
2023/06/06 11:00:41;;;;;;;;;;;;;;;;;;5054180;28;19960;-61
2023/06/06 11:03:07;;;;;;;;;;;;;;;;;;5055907;28;19952;-61
2023/06/06 11:05:33;;;;;;;;;;;;;;;;;;5052863;28;19967;-61
2023/06/06 11:08:02;;;;;;;;;;;;;;;;;;5061216;28;19913;-61
2023/06/06 11:10:27;;;;;;;;;;;;;;;;;;5050955;28;19909;-61
2023/06/06 11:12:53;;;;;;;;;;;;;;;;;;5051392;28;19967;-61
2023/06/06 11:15:19;;;;;;;;;;;;;;;;;;5040990;28;19952;-61
2023/06/06 11:17:45;;;;;;;;;;;;;;;;;;5060071;28;20749;-62
2023/06/06 11:20:11;;;;;;;;;;;;;;;;;;5064493;28;19961;-61
2023/06/06 11:22:37;;;;;;;;;;;;;;;;;;5064408;28;19913;-61
2023/06/06 11:25:03;;;;;;;;;;;;;;;;;;5057305;28;19944;-61
2023/06/06 11:27:30;;;;;;;;;;;;;;;;;;5066356;28;19919;-62
2023/06/06 11:29:56;;;;;;;;;;;;;;;;;;5069006;28;20312;-61
2023/06/06 11:32:22;;;;;;;;;;;;;;;;;;5062903;28;20011;-61
2023/06/06 11:34:48;;;;;;;;;;;;;;;;;;5065590;28;19995;-61
2023/06/06 11:37:14;;;;;;;;;;;;;;;;;;5075196;28;20303;-61
2023/06/06 11:39:40;;;;;;;;;;;;;;;;;;5071830;28;19999;-61
2023/06/06 11:42:06;;;;;;;;;;;;;;;;;;5072873;28;19956;-61
2023/06/06 11:44:32;;;;;;;;;;;;;;;;;;5068655;28;20377;-61
2023/06/06 11:46:59;;;;;;;;;;;;;;;;;;5071693;28;20329;-61
2023/06/06 11:49:25;;;;;;;;;;;;;;;;;;5061048;28;20018;-61
2023/06/06 11:51:51;;;;;;;;;;;;;;;;;;5073321;28;20114;-61
2023/06/06 11:54:17;;;;;;;;;;;;;;;;;;5068897;28;20328;-61
2023/06/06 11:56:43;;;;;;;;;;;;;;;;;;5068328;28;19920;-61
2023/06/06 11:59:09;;;;;;;;;;;;;;;;;;5067644;28;20279;-61
2023/06/06 12:01:35;;;;;;;;;;;;;;;;;;5056042;28;19909;-61
2023/06/06 12:04:01;;;;;;;;;;;;;;;;;;5043791;28;20514;-61
2023/06/06 12:06:27;;;;;;;;;;;;;;;;;;5069826;28;20028;-61
2023/06/06 12:08:53;;;;;;;;;;;;;;;;;;5070066;28;19948;-61
2023/06/06 12:11:20;;;;;;;;;;;;;;;;;;5068548;28;19970;-61
2023/06/06 12:13:46;;;;;;;;;;;;;;;;;;5071998;28;19950;-61
2023/06/06 12:16:12;;;;;;;;;;;;;;;;;;5060804;28;20061;-61
2023/06/06 12:18:38;;;;;;;;;;;;;;;;;;5052629;28;19958;-61
2023/06/06 12:21:04;;;;;;;;;;;;;;;;;;5062330;28;19962;-61
2023/06/06 12:23:31;;;;;;;;;;;;;;;;;;5074203;28;20345;-61
2023/06/06 12:26:00;;;;;;;;;;;;;;;;;;5065461;28;19920;-61
2023/06/06 12:28:26;;;;;;;;;;;;;;;;;;5063738;28;19921;-61
2023/06/06 12:30:53;;;;;;;;;;;;;;;;;;5069820;28;19920;-61
2023/06/06 12:33:19;;;;;;;;;;;;;;;;;;5056496;28;20054;-61
2023/06/06 12:35:45;;;;;;;;;;;;;;;;;;5049525;28;19965;-61
2023/06/06 12:38:11;;;;;;;;;;;;;;;;;;5071217;28;19923;-61
2023/06/06 12:40:37;;;;;;;;;;;;;;;;;;5065280;28;19920;-60
2023/06/06 12:43:04;;;;;;;;;;;;;;;;;;5070372;28;20443;-61
2023/06/06 12:45:30;;;;;;;;;;;;;;;;;;5051985;28;19913;-61
2023/06/06 12:47:56;;;;;;;;;;;;;;;;;;5062916;28;19912;-61
2023/06/06 12:50:22;;;;;;;;;;;;;;;;;;5066542;28;20007;-61
2023/06/06 12:52:48;;;;;;;;;;;;;;;;;;5069316;28;20377;-61
2023/06/06 12:55:14;;;;;;;;;;;;;;;;;;5057244;28;19983;-61
2023/06/06 12:57:39;;;;;;;;;;;;;;;;;;5063232;28;19967;-61
2023/06/06 13:00:07;;;;;;;;;;;;;;;;;;5059589;28;19959;-61
2023/06/06 13:02:33;;;;;;;;;;;;;;;;;;5066777;28;19916;-61
2023/06/06 13:04:59;;;;;;;;;;;;;;;;;;5063761;28;20365;-61
2023/06/06 13:07:25;;;;;;;;;;;;;;;;;;5067722;28;19944;-59
2023/06/06 13:09:51;;;;;;;;;;;;;;;;;;5066131;28;20002;-62
2023/06/06 13:12:17;;;;;;;;;;;;;;;;;;5072336;28;19913;-61
2023/06/06 13:14:43;;;;;;;;;;;;;;;;;;5067196;28;19994;-62
2023/06/06 13:17:09;;;;;;;;;;;;;;;;;;5055750;28;19920;-60
2023/06/06 13:19:35;;;;;;;;;;;;;;;;;;5055616;28;20031;-62
2023/06/06 13:22:02;;;;;;;;;;;;;;;;;;5070272;28;20336;-61
2023/06/06 13:24:28;;;;;;;;;;;;;;;;;;5063411;28;19912;-62
2023/06/06 13:26:54;;;;;;;;;;;;;;;;;;5070906;28;19944;-61
2023/06/06 13:29:20;;;;;;;;;;;;;;;;;;5069907;28;19952;-61
2023/06/06 13:31:46;;;;;;;;;;;;;;;;;;5056219;28;19948;-61
2023/06/06 13:34:12;;;;;;;;;;;;;;;;;;5064937;28;20389;-61
2023/06/06 13:36:38;;;;;;;;;;;;;;;;;;5062766;28;19952;-61
2023/06/06 13:39:04;;;;;;;;;;;;;;;;;;5068039;28;19935;-59
2023/06/06 13:41:31;;;;;;;;;;;;;;;;;;5063292;28;19932;-60
2023/06/06 13:43:59;;;;;;;;;;;;;;;;;;5061033;28;19912;-60
2023/06/06 13:46:25;;;;;;;;;;;;;;;;;;5071154;28;20007;-59
2023/06/06 13:48:53;;;;;;;;;;;;;;;;;;5071491;28;19948;-59
2023/06/06 13:51:19;;;;;;;;;;;;;;;;;;5061508;28;19924;-59
2023/06/06 13:53:45;;;;;;;;;;;;;;;;;;5068230;28;19916;-60
2023/06/06 13:56:10;;;;;;;;;;;;;;;;;;5072263;28;19917;-59
2023/06/06 13:58:49;;;;;;;;;;;;;;;;;;5061887;28;19920;-59
2023/06/06 14:01:16;;;;;;;;;;;;;;;;;;5067473;28;20291;-60
2023/06/06 14:03:42;;;;;;;;;;;;;;;;;;5063897;28;20046;-60
2023/06/06 14:06:08;;;;;;;;;;;;;;;;;;5064267;28;20008;-60
2023/06/06 14:08:34;;;;;;;;;;;;;;;;;;5066055;28;20019;-59
2023/06/06 14:11:03;;;;;;;;;;;;;;;;;;5059391;28;19923;-60
2023/06/06 14:13:29;;;;;;;;;;;;;;;;;;5062267;28;19978;-67
2023/06/06 14:15:55;;;;;;;;;;;;;;;;;;5072379;28;20007;-66
2023/06/06 14:18:20;;;;;;;;;;;;;;;;;;5072216;28;19967;-67
2023/06/06 14:20:59;;;;;;;;;;;;;;;;;;5040044;28;20339;-67
2023/06/06 14:23:25;;;;;;;;;;;;;;;;;;5064009;28;20395;-67
2023/06/06 14:25:51;;;;;;;;;;;;;;;;;;5054971;28;19948;-67
2023/06/06 14:28:18;;;;;;;;;;;;;;;;;;5034304;28;19966;-67
2023/06/06 14:30:45;;;;;;;;;;;;;;;;;;5055516;28;20299;-67
2023/06/06 14:33:11;;;;;;;;;;;;;;;;;;5053965;28;19920;-67
2023/06/06 14:35:37;;;;;;;;;;;;;;;;;;5059661;28;20342;-67
2023/06/06 14:38:04;;;;;;;;;;;;;;;;;;5053563;28;19958;-66
2023/06/06 14:40:30;;;;;;;;;;;;;;;;;;5055900;28;19916;-67
2023/06/06 14:42:56;;;;;;;;;;;;;;;;;;5059272;28;19959;-67
2023/06/06 14:45:22;;;;;;;;;;;;;;;;;;5056266;28;19913;-67
2023/06/06 14:47:47;;;;;;;;;;;;;;;;;;5061771;28;19959;-67
2023/06/06 14:50:14;;;;;;;;;;;;;;;;;;5064574;28;19963;-66
2023/06/06 14:52:40;;;;;;;;;;;;;;;;;;5057297;28;19916;-67
2023/06/06 14:55:06;;;;;;;;;;;;;;;;;;5058366;28;20301;-66
2023/06/06 14:57:32;;;;;;;;;;;;;;;;;;5062882;28;20003;-67
2023/06/06 14:59:58;;;;;;;;;;;;;;;;;;5065975;28;19999;-67
2023/06/06 15:02:24;;;;;;;;;;;;;;;;;;5054725;28;19916;-66
2023/06/06 15:04:50;;;;;;;;;;;;;;;;;;5055277;28;19916;-66
2023/06/06 15:07:16;;;;;;;;;;;;;;;;;;5059940;28;19964;-66
2023/06/06 15:09:42;;;;;;;;;;;;;;;;;;5055833;28;19917;-67
2023/06/06 15:12:11;;;;;;;;;;;;;;;;;;5062932;28;19960;-66
2023/06/06 15:14:37;;;;;;;;;;;;;;;;;;5058323;28;20226;-67
2023/06/06 15:17:04;;;;;;;;;;;;;;;;;;5057450;28;19917;-66
2023/06/06 15:19:32;;;;;;;;;;;;;;;;;;5055271;28;20352;-67
2023/06/06 15:22:00;;;;;;;;;;;;;;;;;;5048211;28;19920;-67
2023/06/06 15:24:28;;;;;;;;;;;;;;;;;;5060471;28;19909;-67
2023/06/06 15:26:57;;;;;;;;;;;;;;;;;;5057471;28;19920;-67
2023/06/06 15:29:23;;;;;;;;;;;;;;;;;;5065065;28;19995;-67
2023/06/06 15:31:49;;;;;;;;;;;;;;;;;;5060986;28;20416;-67
2023/06/06 15:34:15;;;;;;;;;;;;;;;;;;5055801;28;20003;-67
2023/06/06 15:36:41;;;;;;;;;;;;;;;;;;5067196;28;20040;-67
2023/06/06 15:39:07;;;;;;;;;;;;;;;;;;5063510;28;19947;-66
2023/06/06 15:41:33;;;;;;;;;;;;;;;;;;5067869;28;19917;-67
2023/06/06 15:43:59;;;;;;;;;;;;;;;;;;5063235;28;19944;-67
2023/06/06 15:46:25;;;;;;;;;;;;;;;;;;5070816;28;19946;-67
2023/06/06 15:48:51;;;;;;;;;;;;;;;;;;5061317;28;19920;-67
2023/06/06 15:51:17;;;;;;;;;;;;;;;;;;5066091;28;20023;-67
2023/06/06 15:53:43;;;;;;;;;;;;;;;;;;5065402;28;20018;-67
2023/06/06 15:56:09;;;;;;;;;;;;;;;;;;5059012;28;19956;-67
2023/06/06 15:58:35;;;;;;;;;;;;;;;;;;5050725;28;19916;-67
2023/06/06 16:01:01;;;;;;;;;;;;;;;;;;5066507;28;19923;-67
2023/06/06 16:03:27;;;;;;;;;;;;;;;;;;5056237;28;20332;-66
2023/06/06 16:05:53;;;;;;;;;;;;;;;;;;5062919;28;19944;-67
2023/06/06 16:08:18;;;;;;;;;;;;;;;;;;5062890;28;19944;-67
2023/06/06 16:10:44;;;;;;;;;;;;;;;;;;5065863;28;19951;-67
2023/06/06 16:13:10;;;;;;;;;;;;;;;;;;5052110;28;19959;-67
2023/06/06 16:15:36;;;;;;;;;;;;;;;;;;5051014;28;19967;-66
2023/06/06 16:18:02;;;;;;;;;;;;;;;;;;5064403;28;19913;-67
2023/06/06 16:20:28;;;;;;;;;;;;;;;;;;5055911;28;19970;-65
2023/06/06 16:22:54;;;;;;;;;;;;;;;;;;5072901;28;20023;-67
2023/06/06 16:25:20;;;;;;;;;;;;;;;;;;5066258;28;20404;-67
2023/06/06 16:27:46;;;;;;;;;;;;;;;;;;5065389;28;19944;-67
2023/06/06 16:30:12;;;;;;;;;;;;;;;;;;5055555;28;19988;-66
2023/06/06 16:32:38;;;;;;;;;;;;;;;;;;5057410;28;20366;-67
2023/06/06 16:35:04;;;;;;;;;;;;;;;;;;5066119;28;19913;-66
2023/06/06 16:37:30;;;;;;;;;;;;;;;;;;5072112;28;19921;-66
2023/06/06 16:39:56;;;;;;;;;;;;;;;;;;5069809;28;19971;-67